createdAt,value
2023-01-13T00:00:38.630Z,2.90
2023-01-13T00:03:21.436Z,3.20
2023-01-13T00:05:49.817Z,3.20
2023-01-13T00:08:18.603Z,2.70
2023-01-13T00:10:50.917Z,3.20
2023-01-13T00:13:26.798Z,4.60
2023-01-13T00:15:58.282Z,2.60
2023-01-13T00:18:27.689Z,2.20
2023-01-13T00:21:05.274Z,2.90
2023-01-13T00:23:35.311Z,2.50
2023-01-13T00:26:07.431Z,3.50
2023-01-13T00:28:35.964Z,2.30
2023-01-13T00:31:08.853Z,3.50
2023-01-13T00:33:38.115Z,3.00
2023-01-13T00:36:08.153Z,2.20
2023-01-13T00:38:38.047Z,2.60
2023-01-13T00:41:12.167Z,1.80
2023-01-13T00:43:41.064Z,2.70
2023-01-13T00:46:11.857Z,2.60
2023-01-13T00:48:40.795Z,2.40
2023-01-13T00:51:15.188Z,2.00
2023-01-13T00:53:46.152Z,2.80
2023-01-13T00:56:38.670Z,2.40
2023-01-13T00:59:12.226Z,2.00
2023-01-13T01:01:41.470Z,2.50
2023-01-13T01:04:10.175Z,3.30
2023-01-13T01:06:38.653Z,3.50
2023-01-13T01:09:07.280Z,2.40
2023-01-13T01:11:35.714Z,2.70
2023-01-13T01:14:05.128Z,4.20
2023-01-13T01:16:34.672Z,3.70
2023-01-13T01:19:04.121Z,2.30
2023-01-13T01:21:33.139Z,2.70
2023-01-13T01:24:03.663Z,4.10
2023-01-13T01:26:32.757Z,2.50
2023-01-13T01:29:02.608Z,3.00
2023-01-13T01:31:33.830Z,2.60
2023-01-13T01:34:02.939Z,3.20
2023-01-13T01:36:31.447Z,4.00
2023-01-13T01:39:00.481Z,1.90
2023-01-13T01:41:32.348Z,3.20
2023-01-13T01:44:04.730Z,3.30
2023-01-13T01:46:37.139Z,1.60
2023-01-13T01:49:32.747Z,3.80
2023-01-13T01:52:07.336Z,2.90
2023-01-13T01:55:02.339Z,5.40
2023-01-13T01:57:54.251Z,3.60
2023-01-13T02:00:23.422Z,2.40
2023-01-13T02:02:52.678Z,2.70
2023-01-13T02:05:21.650Z,3.80
2023-01-13T02:07:54.038Z,3.80
2023-01-13T02:10:26.367Z,1.80
2023-01-13T02:12:58.531Z,3.40
2023-01-13T02:15:57.788Z,2.70
2023-01-13T02:18:32.511Z,4.10
2023-01-13T02:21:24.021Z,3.20
2023-01-13T02:24:32.946Z,2.80
2023-01-13T02:27:07.579Z,4.70
2023-01-13T02:30:09.854Z,1.70
2023-01-13T02:32:51.232Z,3.80
2023-01-13T02:35:29.826Z,3.30
2023-01-13T02:38:00.382Z,2.20
2023-01-13T02:40:40.937Z,2.10
2023-01-13T02:43:38.215Z,2.10
2023-01-13T02:46:28.601Z,3.50
2023-01-13T02:49:00.353Z,2.80
2023-01-13T02:51:31.401Z,2.60
2023-01-13T02:54:23.936Z,2.90
2023-01-13T02:56:55.889Z,3.30
2023-01-13T02:59:27.965Z,3.00
2023-01-13T03:01:58.085Z,2.40
2023-01-13T03:04:54.219Z,2.90
2023-01-13T03:07:49.420Z,3.70
2023-01-13T03:10:47.879Z,2.80
2023-01-13T03:13:25.916Z,3.60
2023-01-13T03:16:17.000Z,2.70
2023-01-13T03:18:56.262Z,3.10
2023-01-13T03:21:33.042Z,5.40
2023-01-13T03:24:06.171Z,3.60
2023-01-13T03:26:44.441Z,3.60
2023-01-13T03:29:25.103Z,3.20
2023-01-13T03:32:05.153Z,1.80
2023-01-13T03:34:39.402Z,4.50
2023-01-13T03:37:09.257Z,2.50
2023-01-13T03:39:42.771Z,4.50
2023-01-13T03:42:18.532Z,4.00
2023-01-13T03:44:55.109Z,2.80
2023-01-13T03:47:29.017Z,1.80
2023-01-13T03:50:03.750Z,3.10
2023-01-13T03:52:45.127Z,2.50
2023-01-13T03:55:18.766Z,3.00
2023-01-13T03:58:14.412Z,3.00
2023-01-13T04:00:54.540Z,2.60
2023-01-13T04:03:48.307Z,2.60
2023-01-13T04:06:24.030Z,1.90
2023-01-13T04:08:59.062Z,2.50
2023-01-13T04:11:40.332Z,2.50
2023-01-13T04:14:11.714Z,3.90
2023-01-13T04:16:41.757Z,2.90
2023-01-13T04:19:09.976Z,3.90
2023-01-13T04:21:38.365Z,2.20
2023-01-13T04:24:08.736Z,2.60
2023-01-13T04:26:36.963Z,3.20
2023-01-13T04:29:05.249Z,3.00
2023-01-13T04:31:33.936Z,3.00
2023-01-13T04:34:03.326Z,3.10
2023-01-13T04:36:31.707Z,5.60
2023-01-13T04:38:59.979Z,3.10
2023-01-13T04:41:28.645Z,4.30
2023-01-13T04:43:56.762Z,2.30
2023-01-13T04:46:25.175Z,2.80
2023-01-13T04:48:53.549Z,2.40
2023-01-13T04:51:21.735Z,1.90
2023-01-13T04:53:52.513Z,1.90
2023-01-13T04:56:20.789Z,2.00
2023-01-13T04:58:48.930Z,1.70
2023-01-13T05:01:17.353Z,4.40
2023-01-13T05:03:45.708Z,2.80
2023-01-13T05:06:14.185Z,3.30
2023-01-13T05:08:42.465Z,1.70
2023-01-13T05:11:29.573Z,2.50
2023-01-13T05:14:16.815Z,1.80
2023-01-13T05:17:00.547Z,1.20
2023-01-13T05:19:34.718Z,1.40
2023-01-13T05:22:23.006Z,1.90
2023-01-13T05:25:10.328Z,2.80
2023-01-13T05:27:38.652Z,2.00
2023-01-13T05:30:08.530Z,2.80
2023-01-13T05:32:37.828Z,2.60
2023-01-13T05:35:06.920Z,3.60
2023-01-13T05:37:35.605Z,2.90
2023-01-13T05:40:23.959Z,1.70
2023-01-13T05:43:23.121Z,1.60
2023-01-13T05:45:57.481Z,3.10
2023-01-13T05:48:32.008Z,1.80
2023-01-13T05:51:02.385Z,1.10
2023-01-13T05:53:31.320Z,1.70
2023-01-13T05:56:00.609Z,2.20
2023-01-13T05:58:29.268Z,1.40
2023-01-13T06:01:05.169Z,2.80
2023-01-13T06:03:34.916Z,1.60
2023-01-13T06:06:04.614Z,2.30
2023-01-13T06:08:32.973Z,1.70
2023-01-13T06:11:01.434Z,2.20
2023-01-13T06:13:29.970Z,2.10
2023-01-13T06:15:59.607Z,1.30
2023-01-13T06:18:28.704Z,3.40
2023-01-13T06:20:57.447Z,1.00
2023-01-13T06:23:26.695Z,2.80
2023-01-13T06:25:58.046Z,1.70
2023-01-13T06:28:26.592Z,1.50
2023-01-13T06:30:59.117Z,1.20
2023-01-13T06:33:33.805Z,1.50
2023-01-13T06:36:06.295Z,1.70
2023-01-13T06:38:39.039Z,1.60
2023-01-13T06:41:09.470Z,1.10
2023-01-13T06:43:39.694Z,1.80
2023-01-13T06:46:08.315Z,2.30
2023-01-13T06:48:36.591Z,1.60
2023-01-13T06:51:05.477Z,1.20
2023-01-13T06:53:33.975Z,1.60
2023-01-13T06:56:02.321Z,1.50
2023-01-13T06:58:30.608Z,1.40
2023-01-13T07:01:02.569Z,1.90
2023-01-13T07:03:31.336Z,2.00
2023-01-13T07:06:00.675Z,1.20
2023-01-13T07:08:29.154Z,2.40
2023-01-13T07:10:57.738Z,0.70
2023-01-13T07:13:44.537Z,1.60
2023-01-13T07:16:13.185Z,1.20
2023-01-13T07:18:41.719Z,1.90
2023-01-13T07:21:13.414Z,1.30
2023-01-13T07:23:42.479Z,2.50
2023-01-13T07:26:11.517Z,1.60
2023-01-13T07:28:41.561Z,1.80
2023-01-13T07:31:16.717Z,1.50
2023-01-13T07:33:46.001Z,1.40
2023-01-13T07:36:15.474Z,2.30
2023-01-13T07:38:44.866Z,2.00
2023-01-13T07:41:33.234Z,2.30
2023-01-13T07:44:06.320Z,1.90
2023-01-13T07:46:34.834Z,2.10
2023-01-13T07:49:04.443Z,1.70
2023-01-13T07:51:36.407Z,2.40
2023-01-13T07:54:06.647Z,1.30
2023-01-13T07:56:35.543Z,1.80
2023-01-13T07:59:04.640Z,1.80
2023-01-13T08:01:33.710Z,1.90
2023-01-13T08:04:02.928Z,2.10
2023-01-13T08:06:31.737Z,2.10
2023-01-13T08:09:01.557Z,2.60
2023-01-13T08:11:31.246Z,3.20
2023-01-13T08:14:00.848Z,2.00
2023-01-13T08:16:30.178Z,2.60
2023-01-13T08:18:59.643Z,2.90
2023-01-13T08:21:29.353Z,2.20
2023-01-13T08:23:58.957Z,2.50
2023-01-13T08:26:28.864Z,2.80
2023-01-13T08:28:58.256Z,1.80
2023-01-13T08:31:27.897Z,2.30
2023-01-13T08:33:57.329Z,3.00
2023-01-13T08:36:27.047Z,2.80
2023-01-13T08:38:55.999Z,2.40
2023-01-13T08:41:43.509Z,2.20
2023-01-13T08:44:13.430Z,2.30
2023-01-13T08:46:43.632Z,1.60
2023-01-13T08:49:15.099Z,2.70
2023-01-13T08:51:48.229Z,2.10
2023-01-13T08:54:18.131Z,3.90
2023-01-13T08:56:47.463Z,1.60
2023-01-13T08:59:18.875Z,1.60
2023-01-13T09:01:47.589Z,4.30
2023-01-13T09:04:19.895Z,2.90
2023-01-13T09:06:49.831Z,2.00
2023-01-13T09:09:18.863Z,1.80
2023-01-13T09:12:08.457Z,1.60
2023-01-13T09:14:38.805Z,1.90
2023-01-13T09:17:10.395Z,1.60
2023-01-13T09:19:39.404Z,2.80
2023-01-13T09:22:14.222Z,1.50
2023-01-13T09:24:43.231Z,1.20
2023-01-13T09:27:14.325Z,1.90
2023-01-13T09:29:43.532Z,2.50
2023-01-13T09:32:13.859Z,3.50
2023-01-13T09:35:00.881Z,1.60
2023-01-13T09:37:38.570Z,2.70
2023-01-13T09:40:13.192Z,3.30
2023-01-13T09:43:25.417Z,2.70
2023-01-13T09:46:00.220Z,2.30
2023-01-13T09:48:32.819Z,4.20
2023-01-13T09:51:19.041Z,2.80
2023-01-13T09:53:56.915Z,2.40
2023-01-13T09:56:26.237Z,3.00
2023-01-13T09:58:54.898Z,4.50
2023-01-13T10:01:32.759Z,1.90
2023-01-13T10:04:10.911Z,2.50
2023-01-13T10:06:45.056Z,3.00
2023-01-13T10:09:28.491Z,2.90
2023-01-13T10:12:19.458Z,3.00
2023-01-13T10:15:07.625Z,2.40
2023-01-13T10:17:47.241Z,2.30
2023-01-13T10:20:30.588Z,3.10
2023-01-13T10:23:06.614Z,3.00
2023-01-13T10:25:52.469Z,2.60
2023-01-13T10:28:24.465Z,5.20
2023-01-13T10:30:54.025Z,2.20
2023-01-13T10:33:29.343Z,2.40
2023-01-13T10:36:04.424Z,2.50
2023-01-13T10:38:37.998Z,2.80
2023-01-13T10:41:16.587Z,2.10
2023-01-13T10:43:57.352Z,3.20
2023-01-13T10:46:26.388Z,2.70
2023-01-13T10:49:00.412Z,3.60
2023-01-13T10:51:39.496Z,4.20
2023-01-13T10:54:14.158Z,2.30
2023-01-13T10:56:45.296Z,2.30
2023-01-13T10:59:23.518Z,1.80
2023-01-13T11:01:58.361Z,3.40
2023-01-13T11:04:43.614Z,2.90
2023-01-13T11:07:30.314Z,3.00
2023-01-13T11:10:18.231Z,4.10
2023-01-13T11:12:59.053Z,3.00
2023-01-13T11:15:47.530Z,2.80
2023-01-13T11:18:38.088Z,2.80
2023-01-13T11:21:17.899Z,2.50
2023-01-13T11:23:55.224Z,3.20
2023-01-13T11:26:47.529Z,2.50
2023-01-13T11:29:28.047Z,3.10
2023-01-13T11:32:10.094Z,1.90
2023-01-13T11:34:42.771Z,2.80
2023-01-13T11:37:27.948Z,2.20
2023-01-13T11:40:05.828Z,3.00
2023-01-13T11:42:49.683Z,2.10
2023-01-13T11:45:32.825Z,2.20
2023-01-13T11:48:02.911Z,1.90
2023-01-13T11:50:42.800Z,2.30
2023-01-13T11:53:29.989Z,2.90
2023-01-13T11:56:12.185Z,3.30
2023-01-13T11:58:50.279Z,4.00
2023-01-13T12:01:26.096Z,3.80
2023-01-13T12:04:20.429Z,2.20
2023-01-13T12:07:00.559Z,3.90
2023-01-13T12:09:56.036Z,2.90
2023-01-13T12:12:34.133Z,2.20
2023-01-13T12:15:22.822Z,3.60
2023-01-13T12:18:04.151Z,2.50
2023-01-13T12:21:00.364Z,3.70
2023-01-13T12:24:13.932Z,4.30
2023-01-13T12:26:49.664Z,4.10
2023-01-13T12:29:20.722Z,4.80
2023-01-13T12:31:50.472Z,4.00
2023-01-13T12:34:28.159Z,4.20
2023-01-13T12:37:00.107Z,5.40
2023-01-13T12:39:41.271Z,3.80
2023-01-13T12:42:40.876Z,4.00
2023-01-13T12:45:12.394Z,4.10
2023-01-13T12:47:49.402Z,3.70
2023-01-13T12:50:24.142Z,3.80
2023-01-13T12:52:54.888Z,3.60
2023-01-13T12:55:28.270Z,2.50
2023-01-13T12:57:59.737Z,2.60
2023-01-13T13:00:40.379Z,3.90
2023-01-13T13:03:13.181Z,4.10
2023-01-13T13:06:16.247Z,4.50
2023-01-13T13:09:18.342Z,3.00
2023-01-13T13:12:01.113Z,3.10
2023-01-13T13:14:41.822Z,3.50
2023-01-13T13:17:28.545Z,3.10
2023-01-13T13:19:58.135Z,3.50
2023-01-13T13:22:26.568Z,3.30
2023-01-13T13:24:54.979Z,2.70
2023-01-13T13:27:38.655Z,3.50
2023-01-13T13:30:29.142Z,2.80
2023-01-13T13:33:06.487Z,3.10
2023-01-13T13:36:00.202Z,3.00
2023-01-13T13:39:09.472Z,4.70
2023-01-13T13:42:04.230Z,2.10
2023-01-13T13:45:01.077Z,3.80
2023-01-13T13:47:39.682Z,3.90
2023-01-13T13:50:21.094Z,4.30
2023-01-13T13:52:58.647Z,5.50
2023-01-13T13:55:29.099Z,4.40
2023-01-13T13:57:57.984Z,4.20
2023-01-13T14:00:37.059Z,6.70
2023-01-13T14:03:21.570Z,4.60
2023-01-13T14:05:54.564Z,5.90
2023-01-13T14:08:24.721Z,4.90
2023-01-13T14:10:53.982Z,4.70
2023-01-13T14:13:31.263Z,9.70
2023-01-13T14:16:01.556Z,5.90
2023-01-13T14:18:49.604Z,5.70
2023-01-13T14:21:26.988Z,4.70
2023-01-13T14:24:14.971Z,2.70
2023-01-13T14:26:43.673Z,3.00
2023-01-13T14:29:18.834Z,10.40
2023-01-13T14:31:49.087Z,12.30
2023-01-13T14:34:28.792Z,40.60
2023-01-13T14:37:03.912Z,117.80
2023-01-13T14:39:42.245Z,86.10
2023-01-13T14:42:16.747Z,16.10
2023-01-13T14:44:51.983Z,21.70
2023-01-13T14:47:30.596Z,8.10
2023-01-13T14:50:06.300Z,4.10
2023-01-13T14:52:55.480Z,6.00
2023-01-13T14:55:36.734Z,4.50
2023-01-13T14:58:25.505Z,3.50
2023-01-13T15:01:35.285Z,5.10
2023-01-13T15:04:23.617Z,5.60
2023-01-13T15:06:56.666Z,5.20
2023-01-13T15:09:29.225Z,5.00
2023-01-13T15:11:59.124Z,6.20
2023-01-13T15:14:34.993Z,7.10
2023-01-13T15:17:03.833Z,7.30
2023-01-13T15:19:32.759Z,27.20
2023-01-13T15:22:01.479Z,7.50
2023-01-13T15:24:32.258Z,7.80
2023-01-13T15:27:14.336Z,5.70
2023-01-13T15:29:43.379Z,5.30
2023-01-13T15:32:19.757Z,5.20
2023-01-13T15:34:49.147Z,7.70
2023-01-13T15:37:18.045Z,8.90
2023-01-13T15:39:47.059Z,9.60
2023-01-13T15:42:34.780Z,9.40
2023-01-13T15:45:23.241Z,8.00
2023-01-13T15:47:52.103Z,8.30
2023-01-13T15:50:21.127Z,9.60
2023-01-13T15:52:51.028Z,11.80
2023-01-13T15:55:20.405Z,11.60
2023-01-13T15:57:50.969Z,10.20
2023-01-13T16:00:22.197Z,13.90
2023-01-13T16:02:52.224Z,15.10
2023-01-13T16:05:21.737Z,17.80
2023-01-13T16:07:51.163Z,14.80
2023-01-13T16:10:24.732Z,19.70
2023-01-13T16:12:56.116Z,18.10
2023-01-13T16:15:27.923Z,18.40
2023-01-13T16:18:04.377Z,26.20
2023-01-13T16:20:36.090Z,28.90
2023-01-13T16:23:05.899Z,26.20
2023-01-13T16:25:34.608Z,16.30
2023-01-13T16:28:03.597Z,22.10
2023-01-13T16:30:37.458Z,18.60
2023-01-13T16:33:06.597Z,15.00
2023-01-13T16:35:35.735Z,14.80
2023-01-13T16:38:17.987Z,14.10
2023-01-13T16:40:48.623Z,12.30
2023-01-13T16:43:18.142Z,12.70
2023-01-13T16:45:47.725Z,17.40
2023-01-13T16:48:21.062Z,23.50
2023-01-13T16:50:51.023Z,33.30
2023-01-13T16:53:20.885Z,23.60
2023-01-13T16:55:50.507Z,15.00
2023-01-13T16:58:21.933Z,7.60
2023-01-13T17:00:53.412Z,10.00
2023-01-13T17:03:22.492Z,11.10
2023-01-13T17:05:52.084Z,7.50
2023-01-13T17:08:21.994Z,6.50
2023-01-13T17:10:51.616Z,9.60
2023-01-13T17:13:21.599Z,7.70
2023-01-13T17:15:51.633Z,8.50
2023-01-13T17:18:21.163Z,10.10
2023-01-13T17:20:51.135Z,9.10
2023-01-13T17:23:21.205Z,10.60
2023-01-13T17:25:50.042Z,12.70
2023-01-13T17:28:19.294Z,13.30
2023-01-13T17:30:48.440Z,10.90
2023-01-13T17:33:18.933Z,13.00
2023-01-13T17:35:50.376Z,12.70
2023-01-13T17:38:19.851Z,14.20
2023-01-13T17:40:49.410Z,17.50
2023-01-13T17:43:18.602Z,24.70
2023-01-13T17:45:47.407Z,26.10
2023-01-13T17:48:18.015Z,21.80
2023-01-13T17:50:51.617Z,19.60
2023-01-13T17:53:21.340Z,21.00
2023-01-13T17:55:53.511Z,16.80
2023-01-13T17:58:23.125Z,16.80
2023-01-13T18:00:51.527Z,17.10
2023-01-13T18:03:20.715Z,16.70
2023-01-13T18:05:49.904Z,13.50
2023-01-13T18:08:19.700Z,15.40
2023-01-13T18:10:52.835Z,16.20
2023-01-13T18:13:21.910Z,17.20
2023-01-13T18:15:50.682Z,16.10
2023-01-13T18:18:19.718Z,16.40
2023-01-13T18:21:07.972Z,17.50
2023-01-13T18:24:15.324Z,17.20
2023-01-13T18:27:02.975Z,18.10
2023-01-13T18:29:32.503Z,19.90
2023-01-13T18:32:01.509Z,18.50
2023-01-13T18:34:31.489Z,18.40
2023-01-13T18:37:01.674Z,19.00
2023-01-13T18:39:31.171Z,16.30
2023-01-13T18:42:19.675Z,16.80
2023-01-13T18:44:49.553Z,30.90
2023-01-13T18:47:20.232Z,31.90
2023-01-13T18:49:49.799Z,30.30
2023-01-13T18:52:19.135Z,24.40
2023-01-13T18:54:48.445Z,23.20
2023-01-13T18:57:20.136Z,27.30
2023-01-13T18:59:49.851Z,22.10
2023-01-13T19:02:22.162Z,20.90
2023-01-13T19:04:52.129Z,17.80
2023-01-13T19:07:27.039Z,17.80
2023-01-13T19:09:56.505Z,18.20
2023-01-13T19:12:26.684Z,18.80
2023-01-13T19:14:56.382Z,17.70
2023-01-13T19:17:27.596Z,20.30
2023-01-13T19:20:00.019Z,15.20
2023-01-13T19:22:35.863Z,15.40
2023-01-13T19:25:05.778Z,16.50
2023-01-13T19:27:35.327Z,18.30
2023-01-13T19:30:05.560Z,14.70
2023-01-13T19:32:35.162Z,15.50
2023-01-13T19:35:05.111Z,14.00
2023-01-13T19:37:37.712Z,15.60
2023-01-13T19:40:09.868Z,17.30
2023-01-13T19:42:59.239Z,15.60
2023-01-13T19:45:30.813Z,16.20
2023-01-13T19:48:05.479Z,16.30
2023-01-13T19:50:39.903Z,14.40
2023-01-13T19:53:19.038Z,14.80
2023-01-13T19:55:49.451Z,13.50
2023-01-13T19:58:23.510Z,13.30
2023-01-13T20:00:54.151Z,12.70
2023-01-13T20:03:26.060Z,13.70
2023-01-13T20:05:56.382Z,15.30
2023-01-13T20:08:25.785Z,16.50
2023-01-13T20:11:15.271Z,12.70
2023-01-13T20:13:44.187Z,16.90
2023-01-13T20:16:13.102Z,14.70
2023-01-13T20:18:42.054Z,14.40
2023-01-13T20:21:11.472Z,17.30
2023-01-13T20:23:40.866Z,14.10
2023-01-13T20:26:10.902Z,13.80
2023-01-13T20:28:41.002Z,17.90
2023-01-13T20:31:12.185Z,18.90
2023-01-13T20:33:42.746Z,19.40
2023-01-13T20:36:27.229Z,24.30
2023-01-13T20:38:59.557Z,20.20
2023-01-13T20:41:47.376Z,23.50
2023-01-13T20:44:17.624Z,15.40
2023-01-13T20:46:47.184Z,13.10
2023-01-13T20:49:17.365Z,13.10
2023-01-13T20:51:47.993Z,12.50
2023-01-13T20:54:19.038Z,11.30
2023-01-13T20:56:48.820Z,8.50
2023-01-13T20:59:18.830Z,9.60
2023-01-13T21:01:49.655Z,8.50
2023-01-13T21:04:22.279Z,9.00
2023-01-13T21:06:53.688Z,7.80
2023-01-13T21:09:25.730Z,8.00
2023-01-13T21:12:14.503Z,9.30
2023-01-13T21:15:05.402Z,7.10
2023-01-13T21:17:54.211Z,7.50
2023-01-13T21:20:24.145Z,7.70
2023-01-13T21:22:54.160Z,7.40
2023-01-13T21:25:24.281Z,8.80
2023-01-13T21:27:59.710Z,9.10
2023-01-13T21:30:30.410Z,9.00
2023-01-13T21:33:01.536Z,7.70
2023-01-13T21:35:32.937Z,9.70
2023-01-13T21:38:03.829Z,8.80
2023-01-13T21:40:33.461Z,7.30
2023-01-13T21:43:22.510Z,8.10
2023-01-13T21:46:11.029Z,10.90
2023-01-13T21:48:40.669Z,8.70
2023-01-13T21:51:11.265Z,7.20
2023-01-13T21:53:40.987Z,5.40
2023-01-13T21:56:11.392Z,7.10
2023-01-13T21:58:41.793Z,6.00
2023-01-13T22:01:14.088Z,4.90
2023-01-13T22:04:05.304Z,6.10
2023-01-13T22:06:35.273Z,7.90
2023-01-13T22:09:06.156Z,5.30
2023-01-13T22:11:37.873Z,6.00
2023-01-13T22:14:10.423Z,4.60
2023-01-13T22:16:42.637Z,4.40
2023-01-13T22:19:15.117Z,5.90
2023-01-13T22:21:44.699Z,5.30
2023-01-13T22:24:14.091Z,4.70
2023-01-13T22:26:42.758Z,5.80
2023-01-13T22:29:11.365Z,4.90
2023-01-13T22:31:40.863Z,5.10
2023-01-13T22:34:13.058Z,5.60
2023-01-13T22:36:41.325Z,6.10
2023-01-13T22:39:09.800Z,5.80
2023-01-13T22:41:38.186Z,6.30
2023-01-13T22:44:06.888Z,6.00
2023-01-13T22:46:36.773Z,4.40
2023-01-13T22:49:07.436Z,4.00
2023-01-13T22:51:40.769Z,3.90
2023-01-13T22:54:12.458Z,5.20
2023-01-13T22:56:42.862Z,4.40
2023-01-13T22:59:16.842Z,5.00
2023-01-13T23:01:48.686Z,5.50
2023-01-13T23:04:19.330Z,4.10
2023-01-13T23:06:51.793Z,5.00
2023-01-13T23:09:22.698Z,5.30
2023-01-13T23:11:54.522Z,5.70
2023-01-13T23:14:25.044Z,6.70
2023-01-13T23:16:55.548Z,3.80
2023-01-13T23:19:25.646Z,6.20
2023-01-13T23:21:55.766Z,7.40
2023-01-13T23:24:28.687Z,4.00
2023-01-13T23:26:59.315Z,5.30
2023-01-13T23:29:28.235Z,5.10
2023-01-13T23:31:56.609Z,5.00
2023-01-13T23:34:25.604Z,4.00
2023-01-13T23:36:54.035Z,5.30
2023-01-13T23:39:22.500Z,4.50
2023-01-13T23:41:51.067Z,6.20
2023-01-13T23:44:19.577Z,5.20
2023-01-13T23:46:47.821Z,4.80
2023-01-13T23:49:16.618Z,6.20
2023-01-13T23:51:45.267Z,4.50
2023-01-13T23:54:14.103Z,6.70
2023-01-13T23:56:42.681Z,6.00
2023-01-13T23:59:11.481Z,5.20
